createdAt,value
2022-11-26T00:00:21.639Z,7.90
2022-11-26T00:02:48.779Z,7.90
2022-11-26T00:05:16.638Z,7.90
2022-11-26T00:07:48.850Z,8.00
2022-11-26T00:10:20.400Z,8.00
2022-11-26T00:12:48.029Z,7.90
2022-11-26T00:15:30.391Z,7.90
2022-11-26T00:17:57.905Z,7.90
2022-11-26T00:20:30.090Z,7.90
2022-11-26T00:23:01.439Z,7.90
2022-11-26T00:25:50.859Z,7.90
2022-11-26T00:28:26.129Z,7.90
2022-11-26T00:30:56.061Z,7.90
2022-11-26T00:33:23.995Z,7.90
2022-11-26T00:36:01.852Z,7.90
2022-11-26T00:38:30.346Z,7.90
2022-11-26T00:40:58.531Z,7.90
2022-11-26T00:43:25.275Z,7.90
2022-11-26T00:45:52.143Z,7.90
2022-11-26T00:48:19.303Z,7.90
2022-11-26T00:50:51.772Z,7.90
2022-11-26T00:53:22.452Z,8.00
2022-11-26T00:55:50.813Z,8.00
2022-11-26T00:58:44.990Z,8.00
2022-11-26T01:01:14.716Z,8.00
2022-11-26T01:03:42.971Z,8.00
2022-11-26T01:06:35.341Z,8.00
2022-11-26T01:09:04.614Z,7.90
2022-11-26T01:11:31.420Z,7.90
2022-11-26T01:13:58.274Z,7.90
2022-11-26T01:16:31.577Z,7.90
2022-11-26T01:19:00.466Z,7.80
2022-11-26T01:21:29.500Z,7.90
2022-11-26T01:23:56.677Z,7.90
2022-11-26T01:26:27.463Z,7.90
2022-11-26T01:28:55.905Z,7.90
2022-11-26T01:31:25.011Z,7.90
2022-11-26T01:33:52.454Z,7.90
2022-11-26T01:36:29.584Z,8.00
2022-11-26T01:39:17.429Z,7.90
2022-11-26T01:42:02.135Z,7.90
2022-11-26T01:44:31.702Z,7.90
2022-11-26T01:46:59.484Z,7.80
2022-11-26T01:49:38.395Z,7.80
2022-11-26T01:52:21.365Z,7.80
2022-11-26T01:54:50.843Z,7.70
2022-11-26T01:57:27.540Z,7.50
2022-11-26T01:59:59.282Z,7.40
2022-11-26T02:02:28.338Z,7.50
2022-11-26T02:04:55.151Z,7.50
2022-11-26T02:07:22.038Z,7.40
2022-11-26T02:09:49.153Z,7.40
2022-11-26T02:12:15.973Z,7.40
2022-11-26T02:14:44.574Z,7.40
2022-11-26T02:17:35.887Z,7.40
2022-11-26T02:20:39.158Z,7.30
2022-11-26T02:23:26.383Z,7.40
2022-11-26T02:26:15.185Z,7.40
2022-11-26T02:29:03.451Z,7.30
2022-11-26T02:31:42.554Z,7.30
2022-11-26T02:34:12.425Z,7.30
2022-11-26T02:36:53.504Z,7.40
2022-11-26T02:39:23.923Z,7.40
2022-11-26T02:42:04.025Z,7.50
2022-11-26T02:44:43.618Z,7.40
2022-11-26T02:47:14.152Z,7.50
2022-11-26T02:49:42.800Z,7.40
2022-11-26T02:52:11.267Z,7.50
2022-11-26T02:54:40.189Z,7.50
2022-11-26T02:57:11.800Z,7.60
2022-11-26T02:59:39.734Z,7.50
2022-11-26T03:02:32.284Z,7.50
2022-11-26T03:05:01.526Z,7.50
2022-11-26T03:07:31.003Z,7.50
2022-11-26T03:10:00.793Z,7.50
2022-11-26T03:12:28.374Z,7.50
2022-11-26T03:14:55.388Z,7.50
2022-11-26T03:17:22.401Z,7.50
2022-11-26T03:19:49.255Z,7.50
2022-11-26T03:22:16.419Z,7.50
2022-11-26T03:24:43.610Z,7.50
2022-11-26T03:27:10.379Z,7.60
2022-11-26T03:29:37.095Z,7.60
2022-11-26T03:32:04.305Z,7.60
2022-11-26T03:34:31.266Z,7.70
2022-11-26T03:36:57.995Z,7.70
2022-11-26T03:39:24.766Z,7.70
2022-11-26T03:41:51.452Z,7.70
2022-11-26T03:44:18.201Z,7.70
2022-11-26T03:46:44.955Z,7.70
2022-11-26T03:49:11.761Z,7.80
2022-11-26T03:51:38.502Z,7.80
2022-11-26T03:54:05.315Z,7.80
2022-11-26T03:56:32.057Z,7.80
2022-11-26T03:58:58.806Z,7.80
2022-11-26T04:01:25.786Z,7.80
2022-11-26T04:03:52.626Z,7.80
2022-11-26T04:06:19.323Z,7.80
2022-11-26T04:08:46.134Z,7.80
2022-11-26T04:11:14.159Z,7.80
2022-11-26T04:13:40.953Z,7.90
2022-11-26T04:16:08.410Z,7.90
2022-11-26T04:18:35.501Z,7.80
2022-11-26T04:21:02.247Z,7.80
2022-11-26T04:23:28.974Z,7.80
2022-11-26T04:25:55.739Z,7.80
2022-11-26T04:28:22.457Z,7.80
2022-11-26T04:30:49.327Z,7.70
2022-11-26T04:33:16.208Z,7.80
2022-11-26T04:35:42.998Z,7.80
2022-11-26T04:38:09.891Z,7.80
2022-11-26T04:40:36.840Z,7.80
2022-11-26T04:43:03.839Z,7.80
2022-11-26T04:45:30.704Z,7.80
2022-11-26T04:47:57.449Z,7.80
2022-11-26T04:50:24.482Z,7.80
2022-11-26T04:52:51.242Z,7.80
2022-11-26T04:55:18.612Z,7.70
2022-11-26T04:57:48.703Z,7.60
2022-11-26T05:00:17.511Z,7.50
2022-11-26T05:02:44.761Z,7.40
2022-11-26T05:05:12.229Z,7.30
2022-11-26T05:07:39.085Z,7.30
2022-11-26T05:10:07.435Z,7.20
2022-11-26T05:12:34.378Z,7.20
2022-11-26T05:15:01.280Z,7.20
2022-11-26T05:17:28.177Z,7.20
2022-11-26T05:19:54.933Z,7.30
2022-11-26T05:22:21.661Z,7.30
2022-11-26T05:24:48.505Z,7.30
2022-11-26T05:27:15.310Z,7.30
2022-11-26T05:29:42.027Z,7.30
2022-11-26T05:32:08.852Z,7.30
2022-11-26T05:34:35.784Z,7.30
2022-11-26T05:37:02.680Z,7.30
2022-11-26T05:39:29.645Z,7.40
2022-11-26T05:41:56.356Z,7.40
2022-11-26T05:44:23.119Z,7.30
2022-11-26T05:46:50.303Z,7.30
2022-11-26T05:49:17.171Z,7.30
2022-11-26T05:51:43.850Z,7.30
2022-11-26T05:54:14.899Z,7.30
2022-11-26T05:56:43.296Z,7.30
2022-11-26T05:59:10.519Z,7.30
2022-11-26T06:01:37.307Z,7.30
2022-11-26T06:04:04.242Z,7.30
2022-11-26T06:06:31.460Z,7.20
2022-11-26T06:08:58.309Z,7.10
2022-11-26T06:11:25.149Z,7.10
2022-11-26T06:13:51.917Z,7.10
2022-11-26T06:16:18.718Z,7.10
2022-11-26T06:18:45.598Z,7.10
2022-11-26T06:21:12.344Z,7.10
2022-11-26T06:23:40.004Z,7.10
2022-11-26T06:26:11.145Z,7.00
2022-11-26T06:28:38.894Z,7.00
2022-11-26T06:31:06.251Z,7.10
2022-11-26T06:33:33.005Z,7.10
2022-11-26T06:36:01.221Z,7.10
2022-11-26T06:38:28.733Z,7.10
2022-11-26T06:41:06.381Z,7.20
2022-11-26T06:43:33.549Z,7.20
2022-11-26T06:46:05.695Z,7.20
2022-11-26T06:48:33.416Z,7.20
2022-11-26T06:51:15.186Z,7.10
2022-11-26T06:53:42.297Z,7.10
2022-11-26T06:56:18.408Z,7.10
2022-11-26T06:58:47.538Z,7.20
2022-11-26T07:01:20.705Z,7.20
2022-11-26T07:03:47.888Z,7.10
2022-11-26T07:06:26.948Z,7.20
2022-11-26T07:08:55.597Z,7.20
2022-11-26T07:11:23.762Z,7.20
2022-11-26T07:13:51.191Z,7.30
2022-11-26T07:16:18.443Z,7.30
2022-11-26T07:18:55.197Z,7.30
2022-11-26T07:21:26.066Z,7.40
2022-11-26T07:23:53.111Z,7.50
2022-11-26T07:28:49.303Z,7.60
2022-11-26T07:31:18.765Z,7.70
2022-11-26T07:33:46.100Z,7.80
2022-11-26T07:36:22.634Z,8.00
2022-11-26T07:38:49.696Z,8.20
2022-11-26T07:41:19.163Z,8.40
2022-11-26T07:43:46.637Z,8.50
2022-11-26T07:46:16.570Z,8.50
2022-11-26T07:48:44.412Z,8.50
2022-11-26T07:51:20.185Z,8.50
2022-11-26T07:53:47.676Z,8.60
2022-11-26T07:56:14.907Z,8.60
2022-11-26T07:58:41.978Z,8.50
2022-11-26T08:01:17.304Z,8.60
2022-11-26T08:03:46.932Z,8.60
2022-11-26T08:06:16.668Z,8.60
2022-11-26T08:08:43.454Z,8.60
2022-11-26T08:11:14.931Z,8.60
2022-11-26T08:13:42.301Z,8.60
2022-11-26T08:16:09.491Z,8.50
2022-11-26T08:18:36.678Z,8.50
2022-11-26T08:21:04.025Z,8.60
2022-11-26T08:23:31.724Z,8.60
2022-11-26T08:26:21.663Z,8.50
2022-11-26T08:28:46.552Z,8.60
2022-11-26T08:31:15.946Z,8.60
2022-11-26T08:33:43.171Z,8.70
2022-11-26T08:36:11.374Z,8.70
2022-11-26T08:38:38.840Z,8.70
2022-11-26T08:41:09.484Z,8.70
2022-11-26T08:44:04.481Z,8.60
2022-11-26T08:46:25.833Z,8.60
2022-11-26T08:48:55.590Z,8.70
2022-11-26T08:51:22.830Z,8.70
2022-11-26T08:53:49.644Z,8.70
2022-11-26T08:56:16.396Z,8.60
2022-11-26T08:58:45.501Z,8.60
2022-11-26T09:01:16.280Z,8.50
2022-11-26T09:03:43.707Z,8.50
2022-11-26T09:06:11.162Z,8.50
2022-11-26T09:08:57.211Z,8.40
2022-11-26T09:11:25.709Z,8.50
2022-11-26T09:13:53.500Z,8.50
2022-11-26T09:16:22.089Z,8.60
2022-11-26T09:18:48.906Z,8.60
2022-11-26T09:21:15.693Z,8.60
2022-11-26T09:23:42.466Z,8.60
2022-11-26T09:26:09.303Z,8.50
2022-11-26T09:28:36.145Z,8.60
2022-11-26T09:31:03.923Z,8.60
2022-11-26T09:33:31.892Z,8.60
2022-11-26T09:36:10.797Z,8.60
2022-11-26T09:38:37.749Z,8.70
2022-11-26T09:41:16.380Z,8.70
2022-11-26T09:44:01.857Z,8.70
2022-11-26T09:47:10.967Z,8.70
2022-11-26T09:49:46.507Z,8.70
2022-11-26T09:52:18.538Z,8.70
2022-11-26T09:54:47.054Z,8.80
2022-11-26T09:57:41.277Z,8.80
2022-11-26T10:00:29.939Z,8.90
2022-11-26T10:02:58.020Z,8.90
2022-11-26T10:05:52.413Z,8.90
2022-11-26T10:08:46.863Z,9.00
2022-11-26T10:11:30.361Z,9.10
2022-11-26T10:14:05.738Z,9.10
2022-11-26T10:16:44.238Z,9.10
2022-11-26T10:19:22.671Z,9.20
2022-11-26T10:21:59.591Z,9.20
2022-11-26T10:24:36.196Z,9.20
2022-11-26T10:27:16.316Z,9.10
2022-11-26T10:29:48.173Z,9.10
2022-11-26T10:32:30.683Z,9.20
2022-11-26T10:34:58.321Z,9.20
2022-11-26T10:37:27.445Z,9.30
2022-11-26T10:40:01.012Z,9.30
2022-11-26T10:42:43.920Z,9.30
2022-11-26T10:45:22.613Z,9.40
2022-11-26T10:47:49.550Z,9.50
2022-11-26T10:50:46.135Z,9.70
2022-11-26T10:53:06.829Z,9.80
2022-11-26T10:55:41.245Z,10.00
2022-11-26T10:58:17.085Z,10.10
2022-11-26T11:00:49.731Z,10.20
2022-11-26T11:03:59.714Z,10.30
2022-11-26T11:06:20.371Z,10.40
2022-11-26T11:08:49.031Z,10.40
2022-11-26T11:11:28.603Z,10.40
2022-11-26T11:13:58.597Z,10.40
2022-11-26T11:16:39.097Z,10.30
2022-11-26T11:19:20.256Z,10.30
2022-11-26T11:21:48.521Z,10.20
2022-11-26T11:24:16.539Z,10.10
2022-11-26T11:26:45.909Z,10.20
2022-11-26T11:29:38.279Z,10.10
2022-11-26T11:32:26.273Z,10.00
2022-11-26T11:34:53.010Z,10.00
2022-11-26T11:37:21.916Z,10.00
2022-11-26T11:40:17.247Z,10.00
2022-11-26T11:42:50.783Z,10.00
2022-11-26T11:45:41.533Z,10.00
2022-11-26T11:48:32.476Z,9.90
2022-11-26T11:51:14.291Z,9.90
2022-11-26T11:54:01.957Z,9.90
2022-11-26T11:56:41.638Z,9.90
2022-11-26T11:59:37.231Z,9.70
2022-11-26T12:02:19.281Z,9.70
2022-11-26T12:05:03.811Z,9.60
2022-11-26T12:07:46.623Z,9.60
2022-11-26T12:10:25.383Z,9.50
2022-11-26T12:12:56.657Z,9.50
2022-11-26T12:15:30.104Z,9.50
2022-11-26T12:18:04.740Z,9.50
2022-11-26T12:20:46.147Z,9.60
2022-11-26T12:23:24.501Z,9.50
2022-11-26T12:25:59.016Z,9.60
2022-11-26T12:28:35.427Z,9.60
2022-11-26T12:31:13.448Z,9.60
2022-11-26T12:33:55.755Z,9.60
2022-11-26T12:36:51.241Z,9.60
2022-11-26T12:39:33.174Z,9.60
2022-11-26T12:42:37.590Z,9.60
2022-11-26T12:45:35.182Z,9.60
2022-11-26T12:48:10.436Z,9.50
2022-11-26T12:50:47.439Z,9.40
2022-11-26T12:53:55.879Z,9.30
2022-11-26T12:56:35.033Z,9.30
2022-11-26T12:59:22.652Z,9.30
2022-11-26T13:01:49.459Z,9.30
2022-11-26T13:07:15.979Z,9.30
2022-11-26T13:10:05.411Z,9.30
2022-11-26T13:12:59.350Z,9.30
2022-11-26T13:15:49.769Z,9.30
2022-11-26T13:18:30.659Z,9.30
2022-11-26T13:21:34.687Z,9.10
2022-11-26T13:24:27.266Z,8.90
2022-11-26T13:27:17.676Z,8.90
2022-11-26T13:30:07.751Z,9.00
2022-11-26T13:33:08.054Z,9.00
2022-11-26T13:36:02.712Z,9.00
2022-11-26T13:38:58.720Z,8.90
2022-11-26T13:41:45.539Z,8.90
2022-11-26T13:44:35.983Z,8.70
2022-11-26T13:47:21.752Z,8.70
2022-11-26T13:50:07.083Z,8.80
2022-11-26T13:52:39.729Z,8.80
2022-11-26T13:55:24.804Z,8.80
2022-11-26T13:57:55.942Z,8.80
2022-11-26T14:00:34.805Z,8.90
2022-11-26T14:03:02.888Z,8.90
2022-11-26T14:05:51.829Z,8.90
2022-11-26T14:08:38.103Z,8.80
2022-11-26T14:11:05.664Z,8.80
2022-11-26T14:13:32.433Z,8.80
2022-11-26T14:16:08.107Z,8.90
2022-11-26T14:18:57.811Z,9.00
2022-11-26T14:21:24.771Z,9.10
2022-11-26T14:23:56.959Z,9.10
2022-11-26T14:26:38.277Z,9.10
2022-11-26T14:29:08.144Z,9.10
2022-11-26T14:31:37.843Z,9.20
2022-11-26T14:34:24.509Z,9.20
2022-11-26T14:36:59.673Z,9.20
2022-11-26T14:39:28.235Z,9.20
2022-11-26T14:42:03.798Z,9.20
2022-11-26T14:44:33.084Z,9.10
2022-11-26T14:47:07.742Z,9.10
2022-11-26T14:49:41.516Z,9.00
2022-11-26T14:52:17.055Z,9.00
2022-11-26T14:54:48.418Z,9.00
2022-11-26T14:57:24.025Z,8.90
2022-11-26T14:59:58.067Z,8.90
2022-11-26T15:02:27.600Z,8.80
2022-11-26T15:05:02.483Z,8.70
2022-11-26T15:07:30.497Z,8.50
2022-11-26T15:10:02.583Z,8.50
2022-11-26T15:12:29.902Z,8.50
2022-11-26T15:14:59.924Z,8.40
2022-11-26T15:17:32.228Z,8.20
2022-11-26T15:20:02.886Z,8.30
2022-11-26T15:22:39.236Z,8.30
2022-11-26T15:25:15.574Z,8.30
2022-11-26T15:27:53.577Z,8.30
2022-11-26T15:30:29.876Z,8.20
2022-11-26T15:33:04.797Z,8.20
2022-11-26T15:35:33.320Z,8.10
2022-11-26T15:38:00.091Z,8.10
2022-11-26T15:40:49.477Z,8.00
2022-11-26T15:43:33.441Z,8.00
2022-11-26T15:46:04.842Z,8.00
2022-11-26T15:48:51.446Z,8.00
2022-11-26T15:51:24.604Z,7.90
2022-11-26T15:53:51.983Z,7.80
2022-11-26T15:56:22.636Z,7.60
2022-11-26T15:58:55.556Z,7.60
2022-11-26T16:01:25.118Z,7.50
2022-11-26T16:03:54.136Z,7.50
2022-11-26T16:06:34.529Z,7.50
2022-11-26T16:09:04.332Z,7.50
2022-11-26T16:11:34.368Z,7.50
2022-11-26T16:14:32.382Z,7.40
2022-11-26T16:17:08.014Z,7.40
2022-11-26T16:19:36.086Z,7.30
2022-11-26T16:22:04.964Z,7.20
2022-11-26T16:24:42.584Z,7.00
2022-11-26T16:27:20.610Z,6.90
2022-11-26T16:29:47.601Z,6.90
2022-11-26T16:32:16.644Z,6.90
2022-11-26T16:34:44.228Z,6.80
2022-11-26T16:37:26.144Z,6.60
2022-11-26T16:40:13.830Z,6.50
2022-11-26T16:42:40.649Z,6.50
2022-11-26T16:45:09.312Z,6.40
2022-11-26T16:47:41.352Z,6.30
2022-11-26T16:50:20.760Z,6.30
2022-11-26T16:52:48.098Z,6.30
2022-11-26T16:55:17.169Z,6.20
2022-11-26T16:57:48.173Z,6.10
2022-11-26T17:00:18.403Z,6.10
2022-11-26T17:02:46.405Z,6.10
2022-11-26T17:05:13.498Z,6.10
2022-11-26T17:07:46.528Z,6.00
2022-11-26T17:10:22.223Z,6.00
2022-11-26T17:12:50.027Z,5.90
2022-11-26T17:15:17.599Z,5.90
2022-11-26T17:17:44.992Z,5.80
2022-11-26T17:20:20.741Z,5.80
2022-11-26T17:22:47.528Z,5.80
2022-11-26T17:25:15.109Z,5.80
2022-11-26T17:27:42.689Z,5.70
2022-11-26T17:30:24.227Z,5.70
2022-11-26T17:32:51.237Z,5.80
2022-11-26T17:35:18.218Z,5.70
2022-11-26T17:37:45.057Z,5.70
2022-11-26T17:40:20.440Z,5.70
2022-11-26T17:42:47.586Z,5.70
2022-11-26T17:45:15.200Z,5.70
2022-11-26T17:47:42.522Z,5.60
2022-11-26T17:50:22.859Z,5.60
2022-11-26T17:52:49.957Z,5.60
2022-11-26T17:55:17.908Z,5.50
2022-11-26T17:57:44.906Z,5.50
2022-11-26T18:00:16.308Z,5.40
2022-11-26T18:02:43.876Z,5.30
2022-11-26T18:05:11.435Z,5.30
2022-11-26T18:07:39.439Z,5.40
2022-11-26T18:10:09.512Z,5.40
2022-11-26T18:12:36.354Z,5.40
2022-11-26T18:15:04.154Z,5.40
2022-11-26T18:17:31.187Z,5.40
2022-11-26T18:19:58.026Z,5.40
2022-11-26T18:22:26.344Z,5.40
2022-11-26T18:24:56.876Z,5.30
2022-11-26T18:27:30.564Z,5.30
2022-11-26T18:30:00.480Z,5.20
2022-11-26T18:32:27.220Z,5.20
2022-11-26T18:34:54.221Z,5.20
2022-11-26T18:37:21.004Z,5.10
2022-11-26T18:39:47.807Z,5.10
2022-11-26T18:42:36.154Z,5.00
2022-11-26T18:45:02.358Z,5.00
2022-11-26T18:47:29.159Z,5.00
2022-11-26T18:49:56.029Z,5.00
2022-11-26T18:52:22.801Z,5.00
2022-11-26T18:54:49.674Z,5.00
2022-11-26T18:57:16.361Z,5.00
2022-11-26T18:59:43.274Z,5.00
2022-11-26T19:02:11.012Z,5.00
2022-11-26T19:04:38.977Z,5.00
2022-11-26T19:07:05.954Z,5.00
2022-11-26T19:09:32.642Z,4.90
2022-11-26T19:11:59.389Z,4.90
2022-11-26T19:14:26.231Z,4.90
2022-11-26T19:16:53.064Z,4.80
2022-11-26T19:19:20.168Z,4.90
2022-11-26T19:21:47.162Z,4.90
2022-11-26T19:24:14.948Z,4.90
2022-11-26T19:26:42.150Z,5.00
2022-11-26T19:29:11.168Z,4.90
2022-11-26T19:31:39.827Z,4.90
2022-11-26T19:34:12.176Z,4.90
2022-11-26T19:36:39.081Z,4.90
2022-11-26T19:39:06.605Z,4.90
2022-11-26T19:41:33.649Z,4.80
2022-11-26T19:44:01.223Z,4.70
2022-11-26T19:46:28.409Z,4.60
2022-11-26T19:48:55.909Z,4.50
2022-11-26T19:51:25.022Z,4.50
2022-11-26T19:53:54.024Z,4.30
2022-11-26T19:56:26.861Z,4.20
2022-11-26T19:58:54.341Z,4.20
2022-11-26T20:01:22.474Z,4.10
2022-11-26T20:03:49.966Z,4.10
2022-11-26T20:06:21.985Z,4.20
2022-11-26T20:08:50.467Z,4.20
2022-11-26T20:11:18.604Z,4.10
2022-11-26T20:13:46.929Z,4.10
2022-11-26T20:16:17.857Z,4.20
2022-11-26T20:18:45.531Z,4.00
2022-11-26T20:21:16.627Z,4.10
2022-11-26T20:23:43.418Z,4.00
2022-11-26T20:26:14.590Z,3.90
2022-11-26T20:28:41.363Z,3.90
2022-11-26T20:31:08.228Z,3.90
2022-11-26T20:33:35.650Z,3.90
2022-11-26T20:36:07.306Z,3.80
2022-11-26T20:38:35.380Z,3.80
2022-11-26T20:41:09.689Z,3.80
2022-11-26T20:43:37.108Z,3.80
2022-11-26T20:46:06.386Z,3.70
2022-11-26T20:48:34.982Z,3.70
2022-11-26T20:51:03.166Z,3.80
2022-11-26T20:53:30.771Z,3.80
2022-11-26T20:55:58.082Z,3.70
2022-11-26T20:58:26.116Z,3.60
2022-11-26T21:00:54.379Z,3.70
2022-11-26T21:03:22.208Z,3.60
2022-11-26T21:05:49.667Z,3.60
2022-11-26T21:08:17.233Z,3.50
2022-11-26T21:10:43.998Z,3.50
2022-11-26T21:13:14.002Z,3.50
2022-11-26T21:15:42.173Z,3.50
2022-11-26T21:18:09.044Z,3.50
2022-11-26T21:20:42.761Z,3.50
2022-11-26T21:23:11.788Z,3.60
2022-11-26T21:25:41.167Z,3.60
2022-11-26T21:28:08.547Z,3.50
2022-11-26T21:30:35.883Z,3.50
2022-11-26T21:33:08.677Z,3.50
2022-11-26T21:35:36.405Z,3.50
2022-11-26T21:38:04.231Z,3.40
2022-11-26T21:40:31.218Z,3.40
2022-11-26T21:42:58.069Z,3.40
2022-11-26T21:45:25.483Z,3.30
2022-11-26T21:47:52.791Z,3.20
2022-11-26T21:50:20.218Z,3.20
2022-11-26T21:52:47.127Z,3.20
2022-11-26T21:55:13.936Z,3.30
2022-11-26T21:57:40.806Z,3.30
2022-11-26T22:00:08.530Z,3.30
2022-11-26T22:02:35.424Z,3.30
2022-11-26T22:05:02.231Z,3.40
2022-11-26T22:07:30.182Z,3.30
2022-11-26T22:09:57.113Z,3.20
2022-11-26T22:12:23.857Z,3.10
2022-11-26T22:14:50.591Z,3.00
2022-11-26T22:17:17.410Z,3.00
2022-11-26T22:19:44.725Z,2.90
2022-11-26T22:22:11.445Z,2.90
2022-11-26T22:24:38.166Z,2.90
2022-11-26T22:27:05.039Z,2.80
2022-11-26T22:29:31.763Z,2.80
2022-11-26T22:31:58.541Z,2.80
2022-11-26T22:34:27.329Z,2.80
2022-11-26T22:36:54.063Z,2.80
2022-11-26T22:39:20.824Z,2.80
2022-11-26T22:41:48.918Z,2.80
2022-11-26T22:44:16.651Z,2.80
2022-11-26T22:46:44.071Z,2.70
2022-11-26T22:49:13.912Z,2.70
2022-11-26T22:51:41.119Z,2.70
2022-11-26T22:54:09.963Z,2.70
2022-11-26T22:56:37.971Z,2.60
2022-11-26T22:59:06.707Z,2.60
2022-11-26T23:01:35.374Z,2.50
2022-11-26T23:04:04.884Z,2.40
2022-11-26T23:06:33.777Z,2.50
2022-11-26T23:09:03.234Z,2.40
2022-11-26T23:11:34.124Z,2.30
2022-11-26T23:14:02.210Z,2.30
2022-11-26T23:16:29.265Z,2.30
2022-11-26T23:18:57.145Z,2.40
2022-11-26T23:21:33.021Z,2.30
2022-11-26T23:23:59.879Z,2.30
2022-11-26T23:26:29.833Z,2.20
2022-11-26T23:28:57.845Z,2.20
2022-11-26T23:31:28.233Z,2.30
2022-11-26T23:33:55.701Z,2.30
2022-11-26T23:36:23.433Z,2.40
2022-11-26T23:38:50.349Z,2.50
2022-11-26T23:41:17.390Z,2.60
2022-11-26T23:43:44.750Z,2.60
2022-11-26T23:46:14.227Z,2.60
2022-11-26T23:48:41.405Z,2.60
2022-11-26T23:51:13.920Z,2.50
2022-11-26T23:53:42.921Z,2.50
2022-11-26T23:56:19.587Z,2.40
2022-11-26T23:58:51.178Z,2.40
